Data for 12/20/2017

Time Sea-Level Adjusted Pressure Absolute Pressure Temperature Relative Humidity Dew Point   
(mb) (inHg) (mb) (inHg) (C) (F) (%) (C) (F)
00:05 1006 29.71 835 24.66 5.9 42.5 43 -5.6 21.9
00:10 1006 29.71 835 24.66 5.7 42.2 44 -5.7 21.7
00:15 1006 29.71 835 24.66 5.7 42.2 43 -5.8 21.5
00:20 1006 29.71 835 24.66 5.7 42.2 43 -5.9 21.4
00:25 1006 29.71 835 24.66 5.8 42.4 41 -6.6 20.2
00:30 1006 29.71 835 24.66 6.1 42.9 40 -6.4 20.5
00:35 1006 29.71 835 24.66 6.1 43 41 -6 21.1
00:40 1006 29.71 835 24.66 5.8 42.5 43 -5.8 21.6
00:45 1006 29.71 835 24.66 5.6 42.1 43 -5.8 21.5
00:50 1006 29.71 835 24.66 5.7 42.2 43 -5.9 21.3
00:55 1006 29.71 835 24.66 5.6 42 44 -5.7 21.8
01:00 1006 29.71 835 24.66 5.5 42 44 -5.8 21.6
01:05 1006 29.71 835 24.66 5.5 41.9 44 -5.8 21.6
01:10 1006 29.71 835 24.66 5.4 41.8 45 -5.6 21.9
01:15 1005 29.68 835 24.66 5.4 41.7 44 -5.8 21.5
01:20 1005 29.68 835 24.66 5.6 42.1 43 -6.1 21
01:25 1005 29.68 835 24.66 5.6 42.2 43 -5.9 21.4
01:30 1005 29.68 834 24.63 5.5 41.9 44 -5.8 21.6
01:35 1005 29.68 834 24.63 5.5 42 43 -6.1 21
01:40 1005 29.68 835 24.66 5.7 42.2 43 -5.9 21.4
01:45 1005 29.68 835 24.66 5.7 42.3 43 -5.9 21.4
01:50 1006 29.71 835 24.66 5.7 42.2 43 -6 21.1
01:55 1005 29.68 835 24.66 5.7 42.3 42 -6.2 20.9
02:00 1005 29.68 835 24.66 5.8 42.5 42 -6.2 20.8
02:05 1005 29.68 835 24.66 5.8 42.4 44 -5.4 22.2
02:10 1005 29.68 835 24.66 5.4 41.7 45 -5.6 21.9
02:15 1005 29.68 834 24.63 5.4 41.8 46 -5.3 22.4
02:20 1005 29.68 834 24.63 5.3 41.6 47 -5.1 22.9
02:25 1005 29.68 834 24.63 5.1 41.2 48 -5 22.9
02:30 1005 29.68 834 24.63 5 41 48 -5.1 22.8
02:35 1005 29.68 834 24.63 4.9 40.8 49 -4.9 23.1
02:40 1004 29.65 834 24.63 4.7 40.5 49 -5.2 22.7
02:45 1005 29.68 834 24.63 4.7 40.5 48 -5.2 22.6
02:50 1005 29.68 834 24.63 4.8 40.6 48 -5.2 22.7
02:55 1005 29.68 834 24.63 4.9 40.8 47 -5.4 22.3
03:00 1005 29.68 834 24.63 5 41.1 47 -5.3 22.4
03:05 1004 29.65 834 24.63 5 41 48 -5 23
03:10 1004 29.65 834 24.63 5.1 41.2 45 -6 21.2
03:15 1004 29.65 834 24.63 5.3 41.5 45 -5.7 21.7
03:20 1004 29.65 833 24.6 5.3 41.6 43 -6.2 20.9
03:25 1004 29.65 833 24.6 5.6 42 42 -6.2 20.8
03:30 1004 29.65 833 24.6 5.7 42.3 43 -5.8 21.5
03:35 1004 29.65 833 24.6 5.6 42 43 -6.1 21.1
03:40 1004 29.65 833 24.6 5.8 42.4 42 -6.2 20.8
03:45 1004 29.65 833 24.6 6 42.7 40 -6.5 20.2
03:50 1004 29.65 833 24.6 6 42.8 42 -6 21.2
03:55 1004 29.65 833 24.6 5.8 42.4 43 -6 21.3
04:00 1004 29.65 833 24.6 5.6 42 44 -5.9 21.4
04:05 1004 29.65 833 24.6 5.3 41.5 44 -6 21.2
04:10 1003 29.62 833 24.6 5.2 41.3 44 -6 21.3
04:15 1003 29.62 833 24.6 4.8 40.6 49 -5 22.9
04:20 1003 29.62 832 24.57 4.1 39.4 52 -4.9 23.1
04:25 1003 29.62 832 24.57 3.9 39 52 -5.1 22.9
04:30 1003 29.62 832 24.57 3.7 38.7 52 -5.1 22.8
04:35 1003 29.62 832 24.57 3.6 38.4 54 -4.9 23.2
04:40 1003 29.62 832 24.57 3.4 38 55 -4.9 23.2
04:45 1003 29.62 832 24.57 3.1 37.7 55 -4.9 23.1
04:50 1003 29.62 832 24.57 3.1 37.6 55 -5 23.1
04:55 1003 29.62 832 24.57 3.3 37.9 55 -5 23
05:00 1003 29.62 832 24.57 3.4 38.2 54 -5.1 22.9
05:05 1003 29.62 832 24.57 3.5 38.3 52 -5.4 22.3
05:10 1003 29.62 832 24.57 3.8 38.8 51 -5.3 22.4
05:15 1003 29.62 832 24.57 3.8 38.9 52 -5 22.9
05:20 1003 29.62 832 24.57 3.6 38.5 53 -5 23
05:25 1003 29.62 832 24.57 3.4 38.1 54 -5 23
05:30 1003 29.62 832 24.57 3.5 38.2 53 -5.3 22.4
05:35 1003 29.62 832 24.57 3.7 38.7 51 -5.6 22
05:40 1003 29.62 832 24.57 4.1 39.3 47 -6.2 20.9
05:45 1003 29.62 832 24.57 4.9 40.8 43 -6.7 19.9
05:50 1003 29.62 832 24.57 5.3 41.6 44 -5.9 21.4
05:55 1003 29.62 832 24.57 5.2 41.4 45 -5.8 21.5
06:00 1003 29.62 833 24.6 4.9 40.9 46 -5.7 21.8
06:05 1003 29.62 833 24.6 4.6 40.2 49 -5.1 22.8
06:10 1004 29.65 833 24.6 3.6 38.4 58 -4 24.8
06:15 1004 29.65 833 24.6 2.5 36.5 66 -3.3 26
06:20 1005 29.68 834 24.63 1.4 34.4 73 -3 26.6
06:25 1005 29.68 834 24.63 0.5 32.9 78 -2.9 26.8
06:30 1005 29.68 834 24.63 0 32.1 81 -2.8 27
06:35 1005 29.68 834 24.63 -0.2 31.7 84 -2.6 27.3
06:40 1005 29.68 835 24.66 -0.3 31.5 85 -2.4 27.6
06:45 1006 29.71 835 24.66 -0.5 31 88 -2.3 27.9
06:50 1006 29.71 835 24.66 -0.8 30.6 90 -2.3 27.9
06:55 1006 29.71 835 24.66 -0.9 30.3 91 -2.3 27.9
07:00 1006 29.71 835 24.66 -1.2 29.9 91 -2.4 27.7
07:05 1006 29.71 835 24.66 -1.2 29.8 92 -2.4 27.7
07:10 1006 29.71 836 24.69 -1.3 29.6 92 -2.4 27.6
07:15 1007 29.74 836 24.69 -1.5 29.4 92 -2.6 27.3
07:20 1007 29.74 836 24.69 -1.8 28.8 92 -2.9 26.7
07:25 1007 29.74 837 24.72 -2.2 28 92 -3.4 25.8
07:30 1008 29.77 837 24.72 -2.6 27.4 92 -3.7 25.3
07:35 1008 29.77 837 24.72 -2.8 27 92 -3.9 25
07:40 1008 29.77 837 24.72 -2.9 26.8 92 -4 24.8
07:45 1008 29.77 837 24.72 -2.9 26.7 92 -4 24.8
07:50 1008 29.77 838 24.75 -3 26.6 92 -4.1 24.7
07:55 1008 29.77 838 24.75 -3 26.6 92 -4.1 24.7
08:00 1009 29.8 838 24.75 -3.1 26.5 92 -4.1 24.6
08:05 1009 29.8 838 24.75 -3.1 26.4 92 -4.2 24.4
08:10 1009 29.8 838 24.75 -3.2 26.2 92 -4.3 24.2
08:15 1009 29.8 838 24.75 -3.2 26.2 92 -4.3 24.3
08:20 1009 29.8 838 24.75 -3.3 26.1 92 -4.4 24.1
08:25 1009 29.8 838 24.75 -3.4 25.9 92 -4.5 23.9
08:30 1009 29.8 838 24.75 -3.4 25.9 92 -4.6 23.8
08:35 1009 29.8 839 24.78 -3.5 25.8 92 -4.6 23.7
08:40 1009 29.8 838 24.75 -3.5 25.6 92 -4.6 23.7
08:45 1009 29.8 838 24.75 -3.5 25.7 92 -4.6 23.7
08:50 1009 29.8 838 24.75 -3.5 25.7 92 -4.6 23.7
08:55 1009 29.8 838 24.75 -3.5 25.7 92 -4.6 23.7
09:00 1009 29.8 839 24.78 -3.5 25.7 92 -4.7 23.6
09:05 1010 29.83 839 24.78 -3.6 25.5 92 -4.8 23.4
09:10 1010 29.83 839 24.78 -3.7 25.3 91 -5 23
09:15 1010 29.83 839 24.78 -3.9 25 91 -5.1 22.7
09:20 1010 29.83 839 24.78 -4.2 24.4 90 -5.6 21.9
09:25 1010 29.83 839 24.78 -4.6 23.8 90 -5.9 21.3
09:30 1010 29.83 840 24.81 -4.7 23.5 91 -6 21.1
09:35 1010 29.83 840 24.81 -4.8 23.4 91 -6.1 21
09:40 1010 29.83 840 24.81 -4.8 23.3 90 -6.2 20.8
09:45 1011 29.85 840 24.81 -4.9 23.2 91 -6.2 20.8
09:50 1011 29.85 840 24.81 -4.8 23.3 90 -6.2 20.9
09:55 1011 29.85 840 24.81 -4.8 23.3 90 -6.2 20.9
10:00 1010 29.83 840 24.81 -4.8 23.4 91 -6.1 21
10:05 1010 29.83 840 24.81 -4.6 23.6 91 -6 21.3
10:10 1010 29.83 840 24.81 -4.6 23.7 89 -6.1 21
10:15 1010 29.83 840 24.81 -4.7 23.5 90 -6.2 20.9
10:20 1010 29.83 839 24.78 -4.8 23.4 89 -6.4 20.6
10:25 1010 29.83 839 24.78 -5 23 88 -6.6 20.1
10:30 1010 29.83 839 24.78 -5.1 22.8 89 -6.7 19.9
10:35 1010 29.83 839 24.78 -5.3 22.5 88 -6.9 19.5
10:40 1010 29.83 839 24.78 -5.4 22.3 89 -7 19.5
10:45 1010 29.83 839 24.78 -5.4 22.2 88 -7.1 19.3
10:50 1010 29.83 839 24.78 -5.7 21.7 89 -7.3 18.9
10:55 1010 29.83 840 24.81 -5.9 21.3 88 -7.6 18.3
11:00 1011 29.85 840 24.81 -5.9 21.4 88 -7.5 18.5
11:05 1011 29.85 840 24.81 -5.7 21.7 88 -7.5 18.6
11:10 1011 29.85 840 24.81 -5.8 21.5 88 -7.5 18.5
11:15 1011 29.85 840 24.81 -5.8 21.6 88 -7.4 18.6
11:20 1011 29.85 840 24.81 -5.6 21.9 87 -7.5 18.5
11:25 1011 29.85 840 24.81 -5.8 21.6 87 -7.6 18.3
11:30 1011 29.85 840 24.81 -6 21.1 86 -8 17.6
11:35 1011 29.85 840 24.81 -6.4 20.5 87 -8.2 17.2
11:40 1011 29.85 840 24.81 -6.6 20.2 88 -8.3 17
11:45 1011 29.85 840 24.81 -6.6 20.1 87 -8.4 16.8
11:50 1011 29.85 840 24.81 -6.7 19.9 88 -8.5 16.8
11:55 1011 29.85 841 24.83 -6.9 19.6 87 -8.7 16.4
12:00 1011 29.85 841 24.83 -7 19.4 86 -8.9 15.9
12:05 1012 29.88 841 24.83 -7.2 19.1 86 -9.1 15.6
12:10 1012 29.88 841 24.83 -7.3 18.8 86 -9.2 15.4
12:15 1012 29.88 841 24.83 -7.4 18.8 86 -9.4 15.1
12:20 1012 29.88 841 24.83 -7.4 18.7 86 -9.3 15.2
12:25 1012 29.88 841 24.83 -7.4 18.7 85 -9.4 15
12:30 1012 29.88 841 24.83 -7.4 18.6 85 -9.5 14.9
12:35 1012 29.88 841 24.83 -7.5 18.5 85 -9.5 14.8
12:40 1012 29.88 841 24.83 -7.6 18.4 86 -9.6 14.8
12:45 1012 29.88 841 24.83 -7.4 18.7 87 -9.2 15.4
12:50 1012 29.88 841 24.83 -7.3 18.9 85 -9.4 15.1
12:55 1012 29.88 841 24.83 -7.4 18.6 87 -9.2 15.4
13:00 1012 29.88 841 24.83 -7.2 19 86 -9.2 15.4
13:05 1012 29.88 841 24.83 -7.4 18.7 85 -9.5 14.9
13:10 1012 29.88 841 24.83 -7.7 18.2 85 -9.7 14.5
13:15 1012 29.88 842 24.86 -7.7 18.1 86 -9.7 14.6
13:20 1013 29.91 842 24.86 -7.7 18.2 86 -9.7 14.5
13:25 1013 29.91 842 24.86 -7.6 18.3 85 -9.8 14.4
13:30 1013 29.91 842 24.86 -7.8 18 86 -9.8 14.4
13:35 1013 29.91 842 24.86 -7.8 17.9 86 -9.8 14.4
13:40 1013 29.91 842 24.86 -8 17.7 85 -10 14
13:45 1013 29.91 842 24.86 -8.1 17.4 87 -9.9 14.1
13:50 1013 29.91 843 24.89 -8.1 17.4 86 -10.1 13.8
13:55 1013 29.91 843 24.89 -8.3 17.1 86 -10.2 13.6
14:00 1014 29.94 843 24.89 -8.6 16.5 85 -10.7 12.8
14:05 1014 29.94 843 24.89 -8.8 16.2 85 -10.9 12.4
14:10 1014 29.94 843 24.89 -9 15.8 86 -10.9 12.4
14:15 1014 29.94 843 24.89 -9 15.9 86 -10.9 12.5
14:20 1014 29.94 844 24.92 -8.9 16 86 -10.9 12.4
14:25 1015 29.97 844 24.92 -9 15.7 85 -11.1 12
14:30 1015 29.97 844 24.92 -9.2 15.4 86 -11.2 11.9
14:35 1015 29.97 844 24.92 -9.3 15.4 86 -11.1 11.9
14:40 1015 29.97 844 24.92 -9.3 15.2 87 -11.1 11.9
14:45 1015 29.97 844 24.92 -9.4 15 86 -11.4 11.5
14:50 1015 29.97 844 24.92 -9.5 15 87 -11.3 11.6
14:55 1015 29.97 844 24.92 -9.6 14.8 86 -11.4 11.4
15:00 1015 29.97 845 24.95 -9.7 14.5 86 -11.6 11.1
15:05 1015 29.97 845 24.95 -9.8 14.4 87 -11.6 11.1
15:10 1016 30 845 24.95 -9.8 14.4 87 -11.6 11.1
15:15 1016 30 845 24.95 -9.8 14.4 87 -11.6 11.1
15:20 1016 30 845 24.95 -9.8 14.4 88 -11.5 11.3
15:25 1016 30 845 24.95 -9.6 14.7 87 -11.4 11.5
15:30 1016 30 845 24.95 -9.6 14.7 87 -11.5 11.4
15:35 1016 30 845 24.95 -9.9 14.2 86 -11.9 10.6
15:40 1016 30 846 24.98 -10.2 13.7 86 -12.1 10.2
15:45 1017 30.03 846 24.98 -10.3 13.4 87 -12.1 10.2
15:50 1017 30.03 846 24.98 -10.3 13.4 86 -12.3 9.9
15:55 1017 30.03 846 24.98 -10.5 13.1 86 -12.3 9.8
16:00 1017 30.03 846 24.98 -10.5 13.1 86 -12.4 9.6
16:05 1017 30.03 846 24.98 -10.6 13 86 -12.5 9.6
16:10 1017 30.03 846 24.98 -10.5 13 86 -12.5 9.5
16:15 1017 30.03 846 24.98 -10.6 13 86 -12.4 9.6
16:20 1017 30.03 846 24.98 -10.6 13 86 -12.5 9.5
16:25 1017 30.03 847 25.01 -10.6 12.9 86 -12.5 9.6
16:30 1017 30.03 847 25.01 -10.7 12.8 86 -12.5 9.5
16:35 1017 30.03 847 25.01 -10.7 12.8 86 -12.5 9.5
16:40 1018 30.06 847 25.01 -10.6 12.9 87 -12.4 9.7
16:45 1018 30.06 847 25.01 -10.6 13 86 -12.4 9.6
16:50 1018 30.06 847 25.01 -10.6 13 86 -12.4 9.6
16:55 1018 30.06 847 25.01 -10.6 13 86 -12.5 9.6
17:00 1018 30.06 847 25.01 -10.6 12.8 87 -12.5 9.6
17:05 1018 30.06 847 25.01 -10.5 13 86 -12.5 9.5
17:10 1018 30.06 847 25.01 -10.6 12.9 87 -12.4 9.6
17:15 1018 30.06 847 25.01 -10.6 12.9 85 -12.7 9.2
17:20 1018 30.06 848 25.04 -10.8 12.6 85 -12.8 8.9
17:25 1018 30.06 848 25.04 -10.8 12.5 86 -12.8 9
17:30 1018 30.06 848 25.04 -10.9 12.4 86 -12.8 8.9
17:35 1018 30.06 848 25.04 -10.9 12.4 86 -12.8 8.9
17:40 1019 30.09 848 25.04 -10.8 12.5 85 -12.9 8.8
17:45 1019 30.09 848 25.04 -10.9 12.4 85 -12.9 8.8
17:50 1019 30.09 848 25.04 -11 12.3 86 -12.9 8.7
17:55 1019 30.09 848 25.04 -10.9 12.3 86 -12.9 8.8
18:00 1019 30.09 848 25.04 -10.9 12.5 85 -12.8 8.9
18:05 1019 30.09 848 25.04 -10.8 12.6 86 -12.7 9.1
18:10 1019 30.09 848 25.04 -10.7 12.7 85 -12.7 9.1
18:15 1019 30.09 848 25.04 -10.8 12.7 85 -12.8 8.9
18:20 1019 30.09 848 25.04 -10.8 12.7 86 -12.7 9.1
18:25 1019 30.09 848 25.04 -10.8 12.6 85 -12.8 9
18:30 1019 30.09 848 25.04 -10.8 12.5 85 -12.8 8.9
18:35 1019 30.09 848 25.04 -10.9 12.5 85 -12.9 8.8
18:40 1019 30.09 848 25.04 -10.9 12.4 85 -12.9 8.7
18:45 1019 30.09 848 25.04 -11 12.2 85 -13.1 8.5
18:50 1019 30.09 849 25.07 -11 12.2 85 -13 8.5
18:55 1019 30.09 849 25.07 -11 12.2 85 -13.1 8.4
19:00 1019 30.09 849 25.07 -11 12.1 85 -13.1 8.4
19:05 1020 30.12 849 25.07 -11 12.3 84 -13.1 8.4
19:10 1020 30.12 849 25.07 -11 12.2 85 -13.1 8.4
19:15 1020 30.12 849 25.07 -11 12.2 85 -13.1 8.5
19:20 1020 30.12 849 25.07 -11 12.3 85 -13 8.6
19:25 1020 30.12 849 25.07 -11 12.2 85 -13 8.6
19:30 1020 30.12 849 25.07 -11 12.2 85 -13 8.6
19:35 1020 30.12 849 25.07 -10.9 12.3 85 -13.1 8.5
19:40 1020 30.12 849 25.07 -11 12.2 85 -13.1 8.5
19:45 1020 30.12 849 25.07 -11 12.2 85 -13 8.6
19:50 1020 30.12 849 25.07 -10.9 12.4 85 -12.9 8.8
19:55 1020 30.12 849 25.07 -10.9 12.4 85 -13 8.6
20:00 1020 30.12 849 25.07 -11 12.2 84 -13.2 8.3
20:05 1020 30.12 849 25.07 -11.1 12 85 -13.2 8.3
20:10 1020 30.12 849 25.07 -11.2 11.9 86 -13.1 8.4
20:15 1020 30.12 849 25.07 -11.1 12.1 86 -13 8.6
20:20 1020 30.12 849 25.07 -11 12.2 85 -13 8.6
20:25 1020 30.12 849 25.07 -11.1 12.1 85 -13.1 8.4
20:30 1020 30.12 849 25.07 -11.1 12.1 85 -13.1 8.4
20:35 1020 30.12 849 25.07 -11.1 12 85 -13.2 8.3
20:40 1020 30.12 849 25.07 -11.1 12 84 -13.3 8.1
20:45 1020 30.12 849 25.07 -11.2 11.9 85 -13.3 8.1
20:50 1020 30.12 849 25.07 -11.2 11.8 85 -13.3 8
20:55 1020 30.12 849 25.07 -11.3 11.7 85 -13.4 8
21:00 1020 30.12 850 25.1 -11.3 11.6 84 -13.5 7.6
21:05 1020 30.12 850 25.1 -11.4 11.4 85 -13.5 7.7
21:10 1021 30.15 850 25.1 -11.4 11.5 85 -13.5 7.7
21:15 1021 30.15 850 25.1 -11.5 11.4 84 -13.6 7.5
21:20 1021 30.15 850 25.1 -11.6 11.1 84 -13.8 7.2
21:25 1021 30.15 850 25.1 -11.7 11 84 -13.8 7.2
21:30 1021 30.15 850 25.1 -11.6 11.1 84 -13.8 7.2
21:35 1021 30.15 850 25.1 -11.7 11 84 -13.8 7.1
21:40 1021 30.15 850 25.1 -11.8 10.8 84 -13.9 6.9
21:45 1021 30.15 850 25.1 -11.8 10.7 84 -14 6.8
21:50 1021 30.15 850 25.1 -11.8 10.7 84 -14.1 6.7
21:55 1021 30.15 850 25.1 -12 10.5 85 -14 6.7
22:00 1021 30.15 850 25.1 -11.9 10.6 84 -14.1 6.7
22:05 1021 30.15 850 25.1 -11.9 10.5 84 -14.1 6.6
22:10 1021 30.15 850 25.1 -12 10.5 84 -14.2 6.5
22:15 1021 30.15 850 25.1 -11.9 10.6 84 -14.1 6.6
22:20 1021 30.15 850 25.1 -11.9 10.7 83 -14.2 6.4
22:25 1021 30.15 850 25.1 -11.9 10.5 83 -14.3 6.2
22:30 1021 30.15 850 25.1 -12 10.4 83 -14.3 6.3
22:35 1021 30.15 850 25.1 -12 10.4 82 -14.4 6
22:40 1021 30.15 850 25.1 -12.1 10.3 82 -14.5 5.9
22:45 1021 30.15 850 25.1 -12.1 10.3 83 -14.4 6
22:50 1021 30.15 850 25.1 -12.1 10.3 82 -14.6 5.7
22:55 1021 30.15 850 25.1 -12.2 10.1 82 -14.6 5.7
23:00 1021 30.15 850 25.1 -12.2 10.1 81 -14.7 5.5
23:05 1021 30.15 850 25.1 -12.2 10.1 81 -14.8 5.4
23:10 1021 30.15 850 25.1 -12.3 9.9 81 -14.8 5.3
23:15 1021 30.15 850 25.1 -12.2 10 81 -14.8 5.3
23:20 1021 30.15 850 25.1 -12.2 10 81 -14.8 5.3
23:25 1021 30.15 850 25.1 -12.3 9.9 81 -14.9 5.2
23:30 1021 30.15 850 25.1 -12.4 9.7 82 -14.9 5.2
23:35 1021 30.15 850 25.1 -12.4 9.6 82 -15 5.1
23:40 1021 30.15 850 25.1 -12.5 9.6 81 -15 4.9
23:45 1021 30.15 850 25.1 -12.5 9.5 81 -15.1 4.9
23:50 1021 30.15 850 25.1 -12.5 9.5 82 -15.1 4.9
23:55 1021 30.15 850 25.1 -12.6 9.3 82 -15.1 4.9
24:00 1021 30.15 850 25.1 -12.8 9 82 -15.2 4.6